sensor_id;sensor_type;location;lat;lon;timestamp;temperature;humidity
54461;DHT22;40371;49.414;11.010;2023-03-12T00:01:24;0.10;99.90
54461;DHT22;40371;49.414;11.010;2023-03-12T00:03:51;0.10;99.90
54461;DHT22;40371;49.414;11.010;2023-03-12T00:06:19;0.20;99.90
54461;DHT22;40371;49.414;11.010;2023-03-12T00:08:46;0.20;99.90
54461;DHT22;40371;49.414;11.010;2023-03-12T00:11:17;0.10;99.90
54461;DHT22;40371;49.414;11.010;2023-03-12T00:13:43;-0.20;99.90
54461;DHT22;40371;49.414;11.010;2023-03-12T00:16:12;-0.50;99.90
54461;DHT22;40371;49.414;11.010;2023-03-12T00:18:38;-0.40;99.90
54461;DHT22;40371;49.414;11.010;2023-03-12T00:21:05;-0.20;99.90
54461;DHT22;40371;49.414;11.010;2023-03-12T00:23:31;-0.20;99.90
54461;DHT22;40371;49.414;11.010;2023-03-12T00:26:05;-0.30;99.90
54461;DHT22;40371;49.414;11.010;2023-03-12T00:28:31;-0.40;99.90
54461;DHT22;40371;49.414;11.010;2023-03-12T00:30:57;-0.70;99.90
54461;DHT22;40371;49.414;11.010;2023-03-12T00:33:24;-0.80;99.90
54461;DHT22;40371;49.414;11.010;2023-03-12T00:35:50;-0.80;99.90
54461;DHT22;40371;49.414;11.010;2023-03-12T00:38:16;-0.70;99.90
54461;DHT22;40371;49.414;11.010;2023-03-12T00:40:41;-0.50;99.90
54461;DHT22;40371;49.414;11.010;2023-03-12T00:43:07;-0.50;99.90
54461;DHT22;40371;49.414;11.010;2023-03-12T00:45:33;-0.40;99.90
54461;DHT22;40371;49.414;11.010;2023-03-12T00:47:58;-0.20;99.90
54461;DHT22;40371;49.414;11.010;2023-03-12T00:50:24;-0.20;99.90
54461;DHT22;40371;49.414;11.010;2023-03-12T00:52:49;-0.40;99.90
54461;DHT22;40371;49.414;11.010;2023-03-12T00:55:15;-0.70;99.90
54461;DHT22;40371;49.414;11.010;2023-03-12T00:57:41;-0.80;99.90
54461;DHT22;40371;49.414;11.010;2023-03-12T01:00:07;-1.00;99.90
54461;DHT22;40371;49.414;11.010;2023-03-12T01:02:36;-0.90;99.90
54461;DHT22;40371;49.414;11.010;2023-03-12T01:05:02;-0.90;99.90
54461;DHT22;40371;49.414;11.010;2023-03-12T01:07:28;-1.00;99.90
54461;DHT22;40371;49.414;11.010;2023-03-12T01:09:54;-1.00;99.90
54461;DHT22;40371;49.414;11.010;2023-03-12T01:12:19;-1.00;99.90
54461;DHT22;40371;49.414;11.010;2023-03-12T01:14:45;-0.80;99.90
54461;DHT22;40371;49.414;11.010;2023-03-12T01:17:11;-1.00;99.90
54461;DHT22;40371;49.414;11.010;2023-03-12T01:19:36;-1.00;99.90
54461;DHT22;40371;49.414;11.010;2023-03-12T01:22:02;-1.00;99.90
54461;DHT22;40371;49.414;11.010;2023-03-12T01:24:28;-0.90;99.90
54461;DHT22;40371;49.414;11.010;2023-03-12T01:26:54;-1.00;99.90
54461;DHT22;40371;49.414;11.010;2023-03-12T01:29:21;-1.20;99.90
54461;DHT22;40371;49.414;11.010;2023-03-12T01:31:47;-0.90;99.90
54461;DHT22;40371;49.414;11.010;2023-03-12T01:34:13;-0.70;99.90
54461;DHT22;40371;49.414;11.010;2023-03-12T01:36:39;-0.60;99.90
54461;DHT22;40371;49.414;11.010;2023-03-12T01:39:05;-0.60;99.90
54461;DHT22;40371;49.414;11.010;2023-03-12T01:41:32;-0.50;99.90
54461;DHT22;40371;49.414;11.010;2023-03-12T01:43:59;-0.30;99.90
54461;DHT22;40371;49.414;11.010;2023-03-12T01:46:34;-0.80;99.90
54461;DHT22;40371;49.414;11.010;2023-03-12T01:49:08;-1.00;99.90
54461;DHT22;40371;49.414;11.010;2023-03-12T01:54:37;-0.70;99.90
54461;DHT22;40371;49.414;11.010;2023-03-12T01:57:07;-0.60;99.90
54461;DHT22;40371;49.414;11.010;2023-03-12T01:59:47;-0.70;99.90
54461;DHT22;40371;49.414;11.010;2023-03-12T02:02:15;-0.60;99.90
54461;DHT22;40371;49.414;11.010;2023-03-12T02:04:42;-0.70;99.90
54461;DHT22;40371;49.414;11.010;2023-03-12T02:07:13;-0.90;99.90
54461;DHT22;40371;49.414;11.010;2023-03-12T02:09:42;-1.10;99.90
54461;DHT22;40371;49.414;11.010;2023-03-12T02:12:09;-1.30;99.90
54461;DHT22;40371;49.414;11.010;2023-03-12T02:14:35;-1.20;99.90
54461;DHT22;40371;49.414;11.010;2023-03-12T02:17:02;-1.10;99.90
54461;DHT22;40371;49.414;11.010;2023-03-12T02:21:54;-1.10;99.90
54461;DHT22;40371;49.414;11.010;2023-03-12T02:27:12;-1.00;99.90
54461;DHT22;40371;49.414;11.010;2023-03-12T02:29:41;-1.10;99.90
54461;DHT22;40371;49.414;11.010;2023-03-12T02:32:17;-1.30;99.90
54461;DHT22;40371;49.414;11.010;2023-03-12T02:34:44;-1.20;99.90
54461;DHT22;40371;49.414;11.010;2023-03-12T02:37:10;-1.20;99.90
54461;DHT22;40371;49.414;11.010;2023-03-12T02:39:37;-1.00;99.90
54461;DHT22;40371;49.414;11.010;2023-03-12T02:42:03;-1.00;99.90
54461;DHT22;40371;49.414;11.010;2023-03-12T02:44:31;-1.00;99.90
54461;DHT22;40371;49.414;11.010;2023-03-12T02:46:59;-0.70;99.90
54461;DHT22;40371;49.414;11.010;2023-03-12T02:49:28;-0.40;99.90
54461;DHT22;40371;49.414;11.010;2023-03-12T02:51:54;-0.20;99.90
54461;DHT22;40371;49.414;11.010;2023-03-12T02:54:21;-0.10;99.90
54461;DHT22;40371;49.414;11.010;2023-03-12T02:56:48;-0.10;99.90
54461;DHT22;40371;49.414;11.010;2023-03-12T02:59:14;0.00;99.90
54461;DHT22;40371;49.414;11.010;2023-03-12T03:01:42;0.10;99.90
54461;DHT22;40371;49.414;11.010;2023-03-12T03:04:10;0.10;99.90
54461;DHT22;40371;49.414;11.010;2023-03-12T03:06:39;0.10;99.90
54461;DHT22;40371;49.414;11.010;2023-03-12T03:09:06;0.20;99.90
54461;DHT22;40371;49.414;11.010;2023-03-12T03:11:32;0.20;99.90
54461;DHT22;40371;49.414;11.010;2023-03-12T03:13:59;0.10;99.90
54461;DHT22;40371;49.414;11.010;2023-03-12T03:16:27;0.20;99.90
54461;DHT22;40371;49.414;11.010;2023-03-12T03:18:53;0.20;99.90
54461;DHT22;40371;49.414;11.010;2023-03-12T03:21:18;0.20;99.90
54461;DHT22;40371;49.414;11.010;2023-03-12T03:23:46;0.20;99.90
54461;DHT22;40371;49.414;11.010;2023-03-12T03:26:13;0.10;99.90
54461;DHT22;40371;49.414;11.010;2023-03-12T03:28:39;-0.20;99.90
54461;DHT22;40371;49.414;11.010;2023-03-12T03:31:05;0.00;99.90
54461;DHT22;40371;49.414;11.010;2023-03-12T03:33:36;-0.10;99.90
54461;DHT22;40371;49.414;11.010;2023-03-12T03:36:04;-0.70;99.90
54461;DHT22;40371;49.414;11.010;2023-03-12T03:38:34;-0.60;99.90
54461;DHT22;40371;49.414;11.010;2023-03-12T03:41:01;-0.60;99.90
54461;DHT22;40371;49.414;11.010;2023-03-12T03:43:28;-0.50;99.90
54461;DHT22;40371;49.414;11.010;2023-03-12T03:48:24;-0.20;99.90
54461;DHT22;40371;49.414;11.010;2023-03-12T03:50:49;-0.30;99.90
54461;DHT22;40371;49.414;11.010;2023-03-12T03:53:15;-0.20;99.90
54461;DHT22;40371;49.414;11.010;2023-03-12T03:55:44;0.00;99.90
54461;DHT22;40371;49.414;11.010;2023-03-12T03:58:11;0.00;99.90
54461;DHT22;40371;49.414;11.010;2023-03-12T04:00:38;-0.20;99.90
54461;DHT22;40371;49.414;11.010;2023-03-12T04:03:03;-0.60;99.90
54461;DHT22;40371;49.414;11.010;2023-03-12T04:05:29;-0.70;99.90
54461;DHT22;40371;49.414;11.010;2023-03-12T04:07:55;-0.50;99.90
54461;DHT22;40371;49.414;11.010;2023-03-12T04:10:24;-0.40;99.90
54461;DHT22;40371;49.414;11.010;2023-03-12T04:12:50;-0.70;99.90
54461;DHT22;40371;49.414;11.010;2023-03-12T04:15:17;-0.70;99.90
54461;DHT22;40371;49.414;11.010;2023-03-12T04:17:43;-0.50;99.90
54461;DHT22;40371;49.414;11.010;2023-03-12T04:20:09;-0.30;99.90
54461;DHT22;40371;49.414;11.010;2023-03-12T04:22:38;0.00;99.90
54461;DHT22;40371;49.414;11.010;2023-03-12T04:25:05;-0.20;99.90
54461;DHT22;40371;49.414;11.010;2023-03-12T04:27:33;-0.10;99.90
54461;DHT22;40371;49.414;11.010;2023-03-12T04:29:58;0.00;99.90
54461;DHT22;40371;49.414;11.010;2023-03-12T04:32:24;-0.20;99.90
54461;DHT22;40371;49.414;11.010;2023-03-12T04:34:50;-0.30;99.90
54461;DHT22;40371;49.414;11.010;2023-03-12T04:37:16;-0.40;99.90
54461;DHT22;40371;49.414;11.010;2023-03-12T04:39:43;-0.30;99.90
54461;DHT22;40371;49.414;11.010;2023-03-12T04:42:10;-0.10;99.90
54461;DHT22;40371;49.414;11.010;2023-03-12T04:44:36;0.00;99.90
54461;DHT22;40371;49.414;11.010;2023-03-12T04:47:03;0.00;99.90
54461;DHT22;40371;49.414;11.010;2023-03-12T04:49:29;-0.10;99.90
54461;DHT22;40371;49.414;11.010;2023-03-12T04:51:55;-0.30;99.90
54461;DHT22;40371;49.414;11.010;2023-03-12T04:54:21;-0.40;99.90
54461;DHT22;40371;49.414;11.010;2023-03-12T04:56:48;-0.20;99.90
54461;DHT22;40371;49.414;11.010;2023-03-12T04:59:14;-0.10;99.90
54461;DHT22;40371;49.414;11.010;2023-03-12T05:01:42;-0.20;99.90
54461;DHT22;40371;49.414;11.010;2023-03-12T05:04:14;-0.10;99.90
54461;DHT22;40371;49.414;11.010;2023-03-12T05:06:40;-0.20;99.90
54461;DHT22;40371;49.414;11.010;2023-03-12T05:09:06;-0.20;99.90
54461;DHT22;40371;49.414;11.010;2023-03-12T05:11:32;-0.10;99.90
54461;DHT22;40371;49.414;11.010;2023-03-12T05:13:57;-0.20;99.90
54461;DHT22;40371;49.414;11.010;2023-03-12T05:16:23;-0.40;99.90
54461;DHT22;40371;49.414;11.010;2023-03-12T05:18:48;-0.20;99.90
54461;DHT22;40371;49.414;11.010;2023-03-12T05:21:18;0.00;99.90
54461;DHT22;40371;49.414;11.010;2023-03-12T05:23:44;-0.20;99.90
54461;DHT22;40371;49.414;11.010;2023-03-12T05:26:30;-0.20;99.90
54461;DHT22;40371;49.414;11.010;2023-03-12T05:29:03;-0.20;99.90
54461;DHT22;40371;49.414;11.010;2023-03-12T05:31:29;-0.10;99.90
54461;DHT22;40371;49.414;11.010;2023-03-12T05:33:58;-0.20;99.90
54461;DHT22;40371;49.414;11.010;2023-03-12T05:36:24;-0.10;99.90
54461;DHT22;40371;49.414;11.010;2023-03-12T05:38:50;-0.30;99.90
54461;DHT22;40371;49.414;11.010;2023-03-12T05:41:24;-0.40;99.90
54461;DHT22;40371;49.414;11.010;2023-03-12T05:43:53;-0.40;99.90
54461;DHT22;40371;49.414;11.010;2023-03-12T05:46:21;-0.40;99.90
54461;DHT22;40371;49.414;11.010;2023-03-12T05:48:47;-0.10;99.90
54461;DHT22;40371;49.414;11.010;2023-03-12T05:51:14;-0.20;99.90
54461;DHT22;40371;49.414;11.010;2023-03-12T05:53:39;-0.10;99.90
54461;DHT22;40371;49.414;11.010;2023-03-12T05:56:11;-0.40;99.90
54461;DHT22;40371;49.414;11.010;2023-03-12T05:58:37;-0.30;99.90
54461;DHT22;40371;49.414;11.010;2023-03-12T06:01:10;-0.40;99.90
54461;DHT22;40371;49.414;11.010;2023-03-12T06:03:36;-0.40;99.90
54461;DHT22;40371;49.414;11.010;2023-03-12T06:06:02;-0.30;99.90
54461;DHT22;40371;49.414;11.010;2023-03-12T06:08:28;-0.30;99.90
54461;DHT22;40371;49.414;11.010;2023-03-12T06:10:53;-0.20;99.90
54461;DHT22;40371;49.414;11.010;2023-03-12T06:13:21;-0.10;99.90
54461;DHT22;40371;49.414;11.010;2023-03-12T06:15:48;0.20;99.90
54461;DHT22;40371;49.414;11.010;2023-03-12T06:18:14;0.30;99.90
54461;DHT22;40371;49.414;11.010;2023-03-12T06:20:40;0.30;99.90
54461;DHT22;40371;49.414;11.010;2023-03-12T06:23:06;0.10;99.90
54461;DHT22;40371;49.414;11.010;2023-03-12T06:25:32;0.20;99.90
54461;DHT22;40371;49.414;11.010;2023-03-12T06:27:57;0.20;99.90
54461;DHT22;40371;49.414;11.010;2023-03-12T06:30:23;0.20;99.90
54461;DHT22;40371;49.414;11.010;2023-03-12T06:32:49;0.60;99.90
54461;DHT22;40371;49.414;11.010;2023-03-12T06:35:14;0.80;99.90
54461;DHT22;40371;49.414;11.010;2023-03-12T06:37:40;1.00;99.90
54461;DHT22;40371;49.414;11.010;2023-03-12T06:40:06;1.00;99.90
54461;DHT22;40371;49.414;11.010;2023-03-12T06:42:34;1.20;99.90
54461;DHT22;40371;49.414;11.010;2023-03-12T06:45:00;1.10;99.90
54461;DHT22;40371;49.414;11.010;2023-03-12T06:47:26;1.40;99.90
54461;DHT22;40371;49.414;11.010;2023-03-12T06:49:51;1.70;99.90
54461;DHT22;40371;49.414;11.010;2023-03-12T06:52:17;1.80;99.90
54461;DHT22;40371;49.414;11.010;2023-03-12T06:54:42;1.80;99.90
54461;DHT22;40371;49.414;11.010;2023-03-12T06:57:08;2.00;99.90
54461;DHT22;40371;49.414;11.010;2023-03-12T06:59:34;2.20;99.90
54461;DHT22;40371;49.414;11.010;2023-03-12T07:01:59;1.80;99.90
54461;DHT22;40371;49.414;11.010;2023-03-12T07:04:25;1.30;99.90
54461;DHT22;40371;49.414;11.010;2023-03-12T07:06:50;1.70;99.90
54461;DHT22;40371;49.414;11.010;2023-03-12T07:09:17;2.10;99.90
54461;DHT22;40371;49.414;11.010;2023-03-12T07:11:43;1.90;99.90
54461;DHT22;40371;49.414;11.010;2023-03-12T07:14:09;2.20;99.90
54461;DHT22;40371;49.414;11.010;2023-03-12T07:16:35;2.30;99.90
54461;DHT22;40371;49.414;11.010;2023-03-12T07:19:00;2.30;99.90
54461;DHT22;40371;49.414;11.010;2023-03-12T07:21:26;2.60;99.90
54461;DHT22;40371;49.414;11.010;2023-03-12T07:23:52;3.00;99.90
54461;DHT22;40371;49.414;11.010;2023-03-12T07:26:19;2.50;99.90
54461;DHT22;40371;49.414;11.010;2023-03-12T07:28:45;2.50;99.90
54461;DHT22;40371;49.414;11.010;2023-03-12T07:31:10;2.70;99.90
54461;DHT22;40371;49.414;11.010;2023-03-12T07:33:36;3.10;99.90
54461;DHT22;40371;49.414;11.010;2023-03-12T07:36:02;3.40;99.90
54461;DHT22;40371;49.414;11.010;2023-03-12T07:38:28;3.30;99.90
54461;DHT22;40371;49.414;11.010;2023-03-12T07:40:56;3.40;99.90
54461;DHT22;40371;49.414;11.010;2023-03-12T07:43:22;3.10;99.90
54461;DHT22;40371;49.414;11.010;2023-03-12T07:45:51;2.80;99.90
54461;DHT22;40371;49.414;11.010;2023-03-12T07:48:17;3.00;99.90
54461;DHT22;40371;49.414;11.010;2023-03-12T07:50:46;2.90;99.90
54461;DHT22;40371;49.414;11.010;2023-03-12T07:53:12;2.90;99.90
54461;DHT22;40371;49.414;11.010;2023-03-12T07:55:37;3.20;99.90
54461;DHT22;40371;49.414;11.010;2023-03-12T07:58:03;3.20;99.90
54461;DHT22;40371;49.414;11.010;2023-03-12T08:00:29;3.30;99.90
54461;DHT22;40371;49.414;11.010;2023-03-12T08:02:55;3.00;99.90
54461;DHT22;40371;49.414;11.010;2023-03-12T08:05:21;3.10;99.90
54461;DHT22;40371;49.414;11.010;2023-03-12T08:07:50;3.40;99.90
54461;DHT22;40371;49.414;11.010;2023-03-12T08:10:17;3.40;99.90
54461;DHT22;40371;49.414;11.010;2023-03-12T08:12:43;3.60;99.90
54461;DHT22;40371;49.414;11.010;2023-03-12T08:15:10;3.30;99.90
54461;DHT22;40371;49.414;11.010;2023-03-12T08:17:37;3.90;99.90
54461;DHT22;40371;49.414;11.010;2023-03-12T08:20:04;4.80;99.90
54461;DHT22;40371;49.414;11.010;2023-03-12T08:22:32;5.20;99.90
54461;DHT22;40371;49.414;11.010;2023-03-12T08:24:58;4.60;99.90
54461;DHT22;40371;49.414;11.010;2023-03-12T08:27:23;4.00;99.90
54461;DHT22;40371;49.414;11.010;2023-03-12T08:29:49;4.00;99.90
54461;DHT22;40371;49.414;11.010;2023-03-12T08:32:14;3.90;99.90
54461;DHT22;40371;49.414;11.010;2023-03-12T08:34:40;3.80;99.90
54461;DHT22;40371;49.414;11.010;2023-03-12T08:37:06;3.80;99.90
54461;DHT22;40371;49.414;11.010;2023-03-12T08:39:31;4.10;99.90
54461;DHT22;40371;49.414;11.010;2023-03-12T08:41:57;4.00;99.90
54461;DHT22;40371;49.414;11.010;2023-03-12T08:44:23;4.30;99.90
54461;DHT22;40371;49.414;11.010;2023-03-12T08:46:50;4.50;99.90
54461;DHT22;40371;49.414;11.010;2023-03-12T08:49:16;4.90;99.90
54461;DHT22;40371;49.414;11.010;2023-03-12T08:51:41;4.90;99.90
54461;DHT22;40371;49.414;11.010;2023-03-12T08:54:07;4.60;99.90
54461;DHT22;40371;49.414;11.010;2023-03-12T08:56:33;4.30;99.90
54461;DHT22;40371;49.414;11.010;2023-03-12T08:59:01;4.10;99.90
54461;DHT22;40371;49.414;11.010;2023-03-12T09:01:27;4.10;99.90
54461;DHT22;40371;49.414;11.010;2023-03-12T09:03:52;4.20;99.90
54461;DHT22;40371;49.414;11.010;2023-03-12T09:06:20;4.60;99.90
54461;DHT22;40371;49.414;11.010;2023-03-12T09:08:46;4.60;99.90
54461;DHT22;40371;49.414;11.010;2023-03-12T09:11:13;4.70;99.90
54461;DHT22;40371;49.414;11.010;2023-03-12T09:13:40;5.60;99.90
54461;DHT22;40371;49.414;11.010;2023-03-12T09:16:07;6.20;99.90
54461;DHT22;40371;49.414;11.010;2023-03-12T09:18:33;6.30;99.90
54461;DHT22;40371;49.414;11.010;2023-03-12T09:20:59;6.50;99.90
54461;DHT22;40371;49.414;11.010;2023-03-12T09:23:25;6.60;99.90
54461;DHT22;40371;49.414;11.010;2023-03-12T09:25:51;6.40;99.90
54461;DHT22;40371;49.414;11.010;2023-03-12T09:28:17;6.50;99.90
54461;DHT22;40371;49.414;11.010;2023-03-12T09:30:43;8.30;99.90
54461;DHT22;40371;49.414;11.010;2023-03-12T09:33:09;8.50;99.90
54461;DHT22;40371;49.414;11.010;2023-03-12T09:35:35;8.00;99.90
54461;DHT22;40371;49.414;11.010;2023-03-12T09:38:01;8.20;99.90
54461;DHT22;40371;49.414;11.010;2023-03-12T09:40:30;7.80;99.90
54461;DHT22;40371;49.414;11.010;2023-03-12T09:43:17;8.30;99.90
54461;DHT22;40371;49.414;11.010;2023-03-12T09:45:46;8.10;99.90
54461;DHT22;40371;49.414;11.010;2023-03-12T09:48:18;7.50;99.90
54461;DHT22;40371;49.414;11.010;2023-03-12T09:50:49;7.50;99.90
54461;DHT22;40371;49.414;11.010;2023-03-12T09:55:57;7.50;99.90
54461;DHT22;40371;49.414;11.010;2023-03-12T09:58:31;7.40;99.90
54461;DHT22;40371;49.414;11.010;2023-03-12T10:01:35;7.00;99.90
54461;DHT22;40371;49.414;11.010;2023-03-12T10:04:23;7.20;99.90
54461;DHT22;40371;49.414;11.010;2023-03-12T10:12:59;7.20;99.90
54461;DHT22;40371;49.414;11.010;2023-03-12T10:18:37;7.00;99.90
54461;DHT22;40371;49.414;11.010;2023-03-12T10:26:38;6.50;99.90
54461;DHT22;40371;49.414;11.010;2023-03-12T10:29:18;6.60;99.90
54461;DHT22;40371;49.414;11.010;2023-03-12T10:31:55;6.50;99.90
54461;DHT22;40371;49.414;11.010;2023-03-12T10:40:10;6.50;99.90
54461;DHT22;40371;49.414;11.010;2023-03-12T10:42:38;6.60;99.90
54461;DHT22;40371;49.414;11.010;2023-03-12T10:45:22;6.20;99.90
54461;DHT22;40371;49.414;11.010;2023-03-12T10:47:57;6.40;99.90
54461;DHT22;40371;49.414;11.010;2023-03-12T10:50:25;6.40;99.90
54461;DHT22;40371;49.414;11.010;2023-03-12T10:53:10;6.40;99.90
54461;DHT22;40371;49.414;11.010;2023-03-12T10:55:37;6.50;99.90
54461;DHT22;40371;49.414;11.010;2023-03-12T10:58:03;6.40;99.90
54461;DHT22;40371;49.414;11.010;2023-03-12T11:00:30;6.10;99.90
54461;DHT22;40371;49.414;11.010;2023-03-12T11:03:16;6.00;99.90
54461;DHT22;40371;49.414;11.010;2023-03-12T11:05:51;6.00;99.90
54461;DHT22;40371;49.414;11.010;2023-03-12T11:10:49;6.20;99.90
54461;DHT22;40371;49.414;11.010;2023-03-12T11:15:51;6.30;99.90
54461;DHT22;40371;49.414;11.010;2023-03-12T11:20:52;6.20;99.90
54461;DHT22;40371;49.414;11.010;2023-03-12T11:23:24;6.40;99.90
54461;DHT22;40371;49.414;11.010;2023-03-12T11:25:57;6.30;99.90
54461;DHT22;40371;49.414;11.010;2023-03-12T11:28:35;6.30;99.90
54461;DHT22;40371;49.414;11.010;2023-03-12T11:31:01;6.10;99.90
54461;DHT22;40371;49.414;11.010;2023-03-12T11:33:27;6.00;99.90
54461;DHT22;40371;49.414;11.010;2023-03-12T11:36:13;6.00;99.90
54461;DHT22;40371;49.414;11.010;2023-03-12T11:38:57;6.00;99.90
54461;DHT22;40371;49.414;11.010;2023-03-12T11:44:18;6.20;99.90
54461;DHT22;40371;49.414;11.010;2023-03-12T11:50:06;6.20;99.90
54461;DHT22;40371;49.414;11.010;2023-03-12T11:53:03;6.30;99.90
54461;DHT22;40371;49.414;11.010;2023-03-12T12:01:07;6.10;99.90
54461;DHT22;40371;49.414;11.010;2023-03-12T12:06:21;6.20;99.90
54461;DHT22;40371;49.414;11.010;2023-03-12T12:11:23;6.20;99.90
54461;DHT22;40371;49.414;11.010;2023-03-12T12:14:19;6.30;99.90
54461;DHT22;40371;49.414;11.010;2023-03-12T12:17:24;6.30;99.90
54461;DHT22;40371;49.414;11.010;2023-03-12T12:25:52;6.60;99.90
54461;DHT22;40371;49.414;11.010;2023-03-12T12:31:28;6.40;99.90
54461;DHT22;40371;49.414;11.010;2023-03-12T12:36:34;6.40;99.90
54461;DHT22;40371;49.414;11.010;2023-03-12T12:39:18;6.60;99.90
54461;DHT22;40371;49.414;11.010;2023-03-12T12:41:50;6.50;99.90
54461;DHT22;40371;49.414;11.010;2023-03-12T12:44:21;6.60;99.90
54461;DHT22;40371;49.414;11.010;2023-03-12T12:46:54;6.80;99.90
54461;DHT22;40371;49.414;11.010;2023-03-12T12:51:57;6.70;99.90
54461;DHT22;40371;49.414;11.010;2023-03-12T13:02:55;6.70;99.90
54461;DHT22;40371;49.414;11.010;2023-03-12T13:05:30;6.80;99.90
54461;DHT22;40371;49.414;11.010;2023-03-12T13:08:06;6.60;99.90
54461;DHT22;40371;49.414;11.010;2023-03-12T13:13:10;6.90;99.90
54461;DHT22;40371;49.414;11.010;2023-03-12T13:15:38;6.50;99.90
54461;DHT22;40371;49.414;11.010;2023-03-12T13:18:20;6.70;99.90
54461;DHT22;40371;49.414;11.010;2023-03-12T13:26:30;6.70;99.90
54461;DHT22;40371;49.414;11.010;2023-03-12T13:31:44;6.90;99.90
54461;DHT22;40371;49.414;11.010;2023-03-12T13:36:44;6.80;99.90
54461;DHT22;40371;49.414;11.010;2023-03-12T13:39:17;6.80;99.90
54461;DHT22;40371;49.414;11.010;2023-03-12T13:41:47;6.80;99.90
54461;DHT22;40371;49.414;11.010;2023-03-12T13:49:57;6.80;99.90
54461;DHT22;40371;49.414;11.010;2023-03-12T13:52:25;6.90;99.90
54461;DHT22;40371;49.414;11.010;2023-03-12T13:55:01;6.90;99.90
54461;DHT22;40371;49.414;11.010;2023-03-12T13:57:54;6.80;99.90
54461;DHT22;40371;49.414;11.010;2023-03-12T14:00:32;6.80;99.90
54461;DHT22;40371;49.414;11.010;2023-03-12T14:05:46;7.10;99.90
54461;DHT22;40371;49.414;11.010;2023-03-12T14:08:20;7.20;99.90
54461;DHT22;40371;49.414;11.010;2023-03-12T14:16:38;7.40;99.90
54461;DHT22;40371;49.414;11.010;2023-03-12T14:19:05;7.40;99.90
54461;DHT22;40371;49.414;11.010;2023-03-12T14:21:35;7.40;99.90
54461;DHT22;40371;49.414;11.010;2023-03-12T14:24:05;7.50;99.90
54461;DHT22;40371;49.414;11.010;2023-03-12T14:26:34;7.60;99.90
54461;DHT22;40371;49.414;11.010;2023-03-12T14:29:08;7.70;99.90
54461;DHT22;40371;49.414;11.010;2023-03-12T14:31:37;7.90;99.90
54461;DHT22;40371;49.414;11.010;2023-03-12T14:34:25;8.00;99.90
54461;DHT22;40371;49.414;11.010;2023-03-12T14:37:14;8.20;99.90
54461;DHT22;40371;49.414;11.010;2023-03-12T14:42:07;8.40;99.90
54461;DHT22;40371;49.414;11.010;2023-03-12T14:44:35;8.40;99.90
54461;DHT22;40371;49.414;11.010;2023-03-12T14:47:04;8.60;99.90
54461;DHT22;40371;49.414;11.010;2023-03-12T14:49:43;8.50;99.90
54461;DHT22;40371;49.414;11.010;2023-03-12T14:52:21;8.50;99.90
54461;DHT22;40371;49.414;11.010;2023-03-12T14:57:20;8.80;99.90
54461;DHT22;40371;49.414;11.010;2023-03-12T14:59:53;8.80;99.90
54461;DHT22;40371;49.414;11.010;2023-03-12T15:02:20;8.70;99.90
54461;DHT22;40371;49.414;11.010;2023-03-12T15:04:47;8.70;99.90
54461;DHT22;40371;49.414;11.010;2023-03-12T15:07:18;8.80;99.90
54461;DHT22;40371;49.414;11.010;2023-03-12T15:09:46;8.60;99.90
54461;DHT22;40371;49.414;11.010;2023-03-12T15:12:25;8.60;99.90
54461;DHT22;40371;49.414;11.010;2023-03-12T15:14:55;8.70;99.90
54461;DHT22;40371;49.414;11.010;2023-03-12T15:17:28;8.70;99.90
54461;DHT22;40371;49.414;11.010;2023-03-12T15:19:55;8.70;99.90
54461;DHT22;40371;49.414;11.010;2023-03-12T15:22:23;8.70;99.90
54461;DHT22;40371;49.414;11.010;2023-03-12T15:24:52;8.70;99.90
54461;DHT22;40371;49.414;11.010;2023-03-12T15:29:49;8.90;99.90
54461;DHT22;40371;49.414;11.010;2023-03-12T15:32:16;9.10;99.90
54461;DHT22;40371;49.414;11.010;2023-03-12T15:34:45;9.10;99.90
54461;DHT22;40371;49.414;11.010;2023-03-12T15:37:32;9.20;99.90
54461;DHT22;40371;49.414;11.010;2023-03-12T15:40:04;9.20;99.90
54461;DHT22;40371;49.414;11.010;2023-03-12T15:42:37;9.20;99.90
54461;DHT22;40371;49.414;11.010;2023-03-12T15:45:04;9.10;99.90
54461;DHT22;40371;49.414;11.010;2023-03-12T15:47:38;9.10;99.90
54461;DHT22;40371;49.414;11.010;2023-03-12T15:55:42;9.20;99.90
54461;DHT22;40371;49.414;11.010;2023-03-12T15:58:27;9.30;99.90
54461;DHT22;40371;49.414;11.010;2023-03-12T16:01:10;9.30;99.90
54461;DHT22;40371;49.414;11.010;2023-03-12T16:03:36;9.30;99.90
54461;DHT22;40371;49.414;11.010;2023-03-12T16:06:03;9.40;99.90
54461;DHT22;40371;49.414;11.010;2023-03-12T16:11:21;9.40;99.90
54461;DHT22;40371;49.414;11.010;2023-03-12T16:13:48;9.30;99.90
54461;DHT22;40371;49.414;11.010;2023-03-12T16:16:15;9.30;99.90
54461;DHT22;40371;49.414;11.010;2023-03-12T16:18:41;9.30;99.90
54461;DHT22;40371;49.414;11.010;2023-03-12T16:21:07;9.30;99.90
54461;DHT22;40371;49.414;11.010;2023-03-12T16:23:33;9.20;99.90
54461;DHT22;40371;49.414;11.010;2023-03-12T16:25:59;9.20;99.90
54461;DHT22;40371;49.414;11.010;2023-03-12T16:28:25;9.20;99.90
54461;DHT22;40371;49.414;11.010;2023-03-12T16:30:51;9.20;99.90
54461;DHT22;40371;49.414;11.010;2023-03-12T16:33:21;9.20;99.90
54461;DHT22;40371;49.414;11.010;2023-03-12T16:35:47;9.20;99.90
54461;DHT22;40371;49.414;11.010;2023-03-12T16:40:48;9.20;99.90
54461;DHT22;40371;49.414;11.010;2023-03-12T16:43:20;9.10;99.90
54461;DHT22;40371;49.414;11.010;2023-03-12T16:45:47;9.10;99.90
54461;DHT22;40371;49.414;11.010;2023-03-12T16:48:15;9.20;99.90
54461;DHT22;40371;49.414;11.010;2023-03-12T16:50:46;9.10;99.90
54461;DHT22;40371;49.414;11.010;2023-03-12T16:53:12;9.10;99.90
54461;DHT22;40371;49.414;11.010;2023-03-12T16:55:51;9.10;99.90
54461;DHT22;40371;49.414;11.010;2023-03-12T16:58:19;9.10;99.90
54461;DHT22;40371;49.414;11.010;2023-03-12T17:00:46;9.00;99.90
54461;DHT22;40371;49.414;11.010;2023-03-12T17:03:32;8.90;99.90
54461;DHT22;40371;49.414;11.010;2023-03-12T17:05:58;8.90;99.90
54461;DHT22;40371;49.414;11.010;2023-03-12T17:08:24;8.90;99.90
54461;DHT22;40371;49.414;11.010;2023-03-12T17:10:50;8.90;99.90
54461;DHT22;40371;49.414;11.010;2023-03-12T17:13:24;8.90;99.90
54461;DHT22;40371;49.414;11.010;2023-03-12T17:15:50;8.90;99.90
54461;DHT22;40371;49.414;11.010;2023-03-12T17:18:17;8.80;99.90
54461;DHT22;40371;49.414;11.010;2023-03-12T17:20:43;8.80;99.90
54461;DHT22;40371;49.414;11.010;2023-03-12T17:23:09;8.80;99.90
54461;DHT22;40371;49.414;11.010;2023-03-12T17:25:38;8.80;99.90
54461;DHT22;40371;49.414;11.010;2023-03-12T17:28:04;8.90;99.90
54461;DHT22;40371;49.414;11.010;2023-03-12T17:30:30;8.90;99.90
54461;DHT22;40371;49.414;11.010;2023-03-12T17:33:08;8.90;99.90
54461;DHT22;40371;49.414;11.010;2023-03-12T17:35:34;8.90;99.90
54461;DHT22;40371;49.414;11.010;2023-03-12T17:38:00;8.80;99.90
54461;DHT22;40371;49.414;11.010;2023-03-12T17:40:26;8.80;99.90
54461;DHT22;40371;49.414;11.010;2023-03-12T17:42:52;8.80;99.90